Time;durP1;ratioP1;P1;durP2;ratioP2;P2;SDS_P1;SDS_P2;PMS_P1;PMS_P2;Temp;Humidity;BMP_temperature;BMP_pressure;BME280_temperature;BME280_humidity;BME280_pressure;Samples;Min_cycle;Max_cycle;Signal;HPM_P1;HPM_P2
2022/06/02 05:01:03;;;;;;;2.50;1.73;;;17.30;97.20;;;;;;1713478;28;20189;-69
2022/06/02 05:02:03;;;;;;;2.25;1.85;;;17.30;97.20;;;;;;1718639;28;20206;-70
2022/06/02 05:03:01;;;;;;;1.83;1.52;;;17.40;97.20;;;;;;1721011;28;20705;-70
2022/06/02 05:04:04;;;;;;;2.20;1.60;;;17.40;97.20;;;;;;1721227;28;20603;-70
2022/06/02 05:05:07;;;;;;;3.45;1.90;;;17.40;97.20;;;;;;1721179;28;20778;-70
2022/06/02 05:06:09;;;;;;;4.45;2.25;;;17.40;97.20;;;;;;1721077;28;20334;-70
2022/06/02 05:07:08;;;;;;;2.53;2.00;;;17.40;97.20;;;;;;1720948;28;20719;-70
2022/06/02 05:08:43;;;;;;;2.20;1.50;;;17.40;97.20;;;;;;1721044;28;20256;-70
2022/06/02 05:09:36;;;;;;;1.75;1.63;;;17.40;97.20;;;;;;1701575;28;20189;-70
2022/06/02 05:10:35;;;;;;;6.25;1.80;;;17.30;97.20;;;;;;1721171;28;20308;-70
2022/06/02 05:11:40;;;;;;;1.88;1.33;;;17.30;97.20;;;;;;1721228;28;20213;-70
2022/06/02 05:12:45;;;;;;;1.60;1.50;;;17.30;97.20;;;;;;1720978;28;20257;-70
2022/06/02 05:13:46;;;;;;;2.28;1.70;;;17.30;97.20;;;;;;1718913;28;20277;-70
2022/06/02 05:14:43;;;;;;;2.50;1.90;;;17.30;97.20;;;;;;1721168;28;20263;-70
2022/06/02 05:16:05;;;;;;;4.53;1.77;;;17.30;97.20;;;;;;1721182;28;20204;-70
2022/06/02 05:17:07;;;;;;;5.88;1.65;;;17.30;97.20;;;;;;1720928;28;20264;-70
2022/06/02 05:18:22;;;;;;;6.35;1.65;;;17.30;97.20;;;;;;1721103;28;20201;-70
2022/06/02 05:19:39;;;;;;;2.95;1.80;;;17.30;97.20;;;;;;1720965;28;20209;-70
2022/06/02 05:20:58;;;;;;;3.70;1.63;;;17.30;97.20;;;;;;1721138;28;20695;-70
2022/06/02 05:22:06;;;;;;;3.67;1.73;;;17.30;97.20;;;;;;1721229;28;20220;-70
2022/06/02 05:23:25;;;;;;;2.75;2.00;;;17.30;97.20;;;;;;1721280;28;20548;-70
2022/06/02 05:24:40;;;;;;;4.95;1.95;;;17.30;97.20;;;;;;1720975;28;20197;-70
2022/06/02 05:25:49;;;;;;;2.22;1.55;;;17.30;97.20;;;;;;1721120;28;20208;-70
2022/06/02 05:27:09;;;;;;;3.47;2.00;;;17.30;97.20;;;;;;1720308;28;20209;-70
2022/06/02 05:28:16;;;;;;;4.10;1.80;;;17.30;97.20;;;;;;1714214;28;20584;-70
2022/06/02 05:29:25;;;;;;;2.15;1.80;;;17.40;97.20;;;;;;1713801;28;20677;-70
2022/06/02 05:30:40;;;;;;;1.60;1.50;;;17.40;97.20;;;;;;1714795;28;20847;-70
2022/06/02 05:32:06;;;;;;;2.10;1.85;;;17.40;97.20;;;;;;1713843;28;20206;-70
2022/06/02 05:33:26;;;;;;;3.70;1.80;;;17.40;97.20;;;;;;1719844;28;20209;-70
2022/06/02 05:34:50;;;;;;;2.60;2.03;;;17.40;97.20;;;;;;1721103;28;20638;-70
2022/06/02 05:36:11;;;;;;;3.40;1.75;;;17.40;97.20;;;;;;1720886;28;20224;-70
2022/06/02 05:37:16;;;;;;;1.80;1.70;;;17.50;97.20;;;;;;1699562;29;20641;-70
2022/06/02 05:38:36;;;;;;;3.40;2.00;;;17.40;97.20;;;;;;1720035;28;20233;-70
2022/06/02 05:39:39;;;;;;;1.95;1.70;;;17.50;97.20;;;;;;1720985;28;20213;-70
2022/06/02 05:40:37;;;;;;;6.18;2.08;;;17.50;97.20;;;;;;1720836;28;20205;-70
2022/06/02 05:41:39;;;;;;;2.42;1.95;;;17.50;97.20;;;;;;1719481;28;20209;-70
2022/06/02 05:42:43;;;;;;;3.38;1.95;;;17.50;97.20;;;;;;1720317;28;20217;-70
2022/06/02 05:43:47;;;;;;;2.47;1.85;;;17.50;97.20;;;;;;1720433;28;20205;-70
2022/06/02 05:44:56;;;;;;;2.20;1.98;;;17.60;97.20;;;;;;1720403;28;20205;-70
2022/06/02 05:46:01;;;;;;;2.58;1.75;;;17.60;97.20;;;;;;1714190;28;20190;-70
2022/06/02 05:47:11;;;;;;;4.55;1.60;;;17.60;97.20;;;;;;1714013;28;20400;-70
2022/06/02 05:48:20;;;;;;;8.43;2.10;;;17.70;97.20;;;;;;1720109;28;20213;-70
2022/06/02 05:49:19;;;;;;;2.70;2.00;;;17.80;97.20;;;;;;1719456;28;20205;-70
2022/06/02 05:50:23;;;;;;;8.55;2.15;;;17.80;97.20;;;;;;1720782;28;20197;-70
2022/06/02 05:51:24;;;;;;;3.35;1.95;;;17.90;97.20;;;;;;1720949;28;20212;-70
2022/06/02 05:52:22;;;;;;;2.78;1.80;;;17.90;97.20;;;;;;1720824;28;20240;-70
2022/06/02 05:53:23;;;;;;;2.80;2.10;;;18.00;97.20;;;;;;1720865;28;20213;-70
2022/06/02 05:54:29;;;;;;;1.60;1.50;;;18.00;97.20;;;;;;1720724;28;20260;-70
2022/06/02 05:55:45;;;;;;;7.10;2.10;;;18.10;97.20;;;;;;1719249;28;20233;-70
2022/06/02 05:56:47;;;;;;;4.60;1.90;;;18.10;97.20;;;;;;1719870;28;20212;-70
2022/06/02 05:57:46;;;;;;;3.17;1.85;;;18.20;97.20;;;;;;1720638;28;20201;-70
2022/06/02 05:58:52;;;;;;;2.97;1.90;;;18.20;97.20;;;;;;1721013;28;20201;-70
2022/06/02 06:00:11;;;;;;;2.30;2.10;;;18.30;97.20;;;;;;1718396;28;20202;-70
2022/06/02 06:01:12;;;;;;;1.90;1.63;;;18.30;97.20;;;;;;1720021;28;20688;-70
2022/06/02 06:02:21;;;;;;;2.20;1.67;;;18.30;97.20;;;;;;1714182;28;20197;-70
2022/06/02 06:03:45;;;;;;;2.53;1.67;;;18.40;97.20;;;;;;1720537;28;20205;-70
2022/06/02 06:05:19;;;;;;;3.45;2.00;;;18.40;97.20;;;;;;1720837;28;20284;-70
2022/06/02 06:06:20;;;;;;;2.97;2.03;;;18.40;97.20;;;;;;1703809;28;20228;-70
2022/06/02 06:07:18;;;;;;;3.17;2.05;;;18.30;97.20;;;;;;1713946;28;20183;-70
2022/06/02 06:08:43;;;;;;;2.75;1.90;;;18.30;97.20;;;;;;1713985;28;20550;-70
2022/06/02 06:09:46;;;;;;;2.15;1.92;;;18.30;97.20;;;;;;1720521;28;20190;-69
2022/06/02 06:10:49;;;;;;;3.05;1.65;;;18.30;97.20;;;;;;1720923;28;20186;-69
2022/06/02 06:11:57;;;;;;;3.70;2.15;;;18.30;97.20;;;;;;1714055;28;20229;-70
2022/06/02 06:13:07;;;;;;;3.10;2.10;;;18.30;97.20;;;;;;1715543;28;20259;-70
2022/06/02 06:14:25;;;;;;;2.67;1.98;;;18.30;97.20;;;;;;1717968;28;20217;-70
2022/06/02 06:15:24;;;;;;;4.00;2.72;;;18.20;97.20;;;;;;1720558;28;20614;-70
2022/06/02 06:16:21;;;;;;;6.18;2.22;;;18.20;97.20;;;;;;1719992;28;20660;-70
2022/06/02 06:17:27;;;;;;;3.42;1.90;;;18.20;97.20;;;;;;1719766;28;20583;-70
2022/06/02 06:18:30;;;;;;;2.17;1.95;;;18.20;97.20;;;;;;1713621;28;20309;-70
2022/06/02 06:19:52;;;;;;;3.58;2.00;;;18.10;97.20;;;;;;1714009;28;20245;-70
2022/06/02 06:20:55;;;;;;;1.90;1.80;;;18.10;97.20;;;;;;1705386;28;20205;-72
2022/06/02 06:22:02;;;;;;;2.60;2.38;;;18.10;97.20;;;;;;1719012;28;20601;-70
2022/06/02 06:23:13;;;;;;;3.05;1.70;;;18.10;97.20;;;;;;1720454;28;20287;-71
2022/06/02 06:24:50;;;;;;;2.80;2.10;;;18.00;97.20;;;;;;1715799;28;20194;-71
2022/06/02 06:25:58;;;;;;;2.20;2.00;;;18.00;97.20;;;;;;1696887;29;20199;-72
2022/06/02 06:27:00;;;;;;;4.95;2.40;;;18.00;97.20;;;;;;1719012;28;20285;-71
2022/06/02 06:28:05;;;;;;;5.10;2.20;;;18.00;97.20;;;;;;1717929;28;20209;-71
2022/06/02 06:29:26;;;;;;;1.88;1.77;;;18.10;97.20;;;;;;1720235;28;20664;-71
2022/06/02 06:30:28;;;;;;;2.55;2.05;;;18.10;97.20;;;;;;1715545;28;20256;-71
2022/06/02 06:31:30;;;;;;;5.45;2.10;;;18.10;97.20;;;;;;1720399;28;20348;-71
2022/06/02 06:32:35;;;;;;;2.50;2.05;;;18.10;97.20;;;;;;1718305;28;20256;-70
2022/06/02 06:33:51;;;;;;;1.73;1.63;;;18.10;97.20;;;;;;1720419;28;20957;-70
2022/06/02 06:34:56;;;;;;;7.57;2.28;;;18.10;97.20;;;;;;1720745;28;20552;-70
2022/06/02 06:36:09;;;;;;;4.63;2.42;;;18.20;97.20;;;;;;1720567;28;20244;-70
2022/06/02 06:37:14;;;;;;;3.35;2.05;;;18.20;97.20;;;;;;1720585;28;20660;-70
2022/06/02 06:38:28;;;;;;;1.80;1.70;;;18.20;97.20;;;;;;1720474;28;20193;-70
2022/06/02 06:39:31;;;;;;;3.53;1.92;;;18.30;97.20;;;;;;1720652;28;20572;-70
2022/06/02 06:40:46;;;;;;;2.85;2.42;;;18.30;97.20;;;;;;1718531;28;20185;-70
2022/06/02 06:41:55;;;;;;;2.92;2.00;;;18.30;97.20;;;;;;1719377;28;20205;-71
2022/06/02 06:42:58;;;;;;;4.80;1.85;;;18.40;97.20;;;;;;1721024;28;20240;-70
2022/06/02 06:44:09;;;;;;;2.75;1.80;;;18.40;97.20;;;;;;1720828;28;20714;-71
2022/06/02 06:45:06;;;;;;;2.58;1.80;;;18.50;97.20;;;;;;1720161;28;20201;-71
2022/06/02 06:46:05;;;;;;;5.38;1.70;;;18.50;97.20;;;;;;1719655;28;20204;-71
2022/06/02 06:47:08;;;;;;;1.98;1.88;;;18.60;97.20;;;;;;1720442;28;20228;-71
2022/06/02 06:48:13;;;;;;;2.65;2.00;;;18.60;97.20;;;;;;1720663;28;20244;-72
2022/06/02 06:49:12;;;;;;;5.15;2.08;;;18.70;97.20;;;;;;1720663;28;20645;-72
2022/06/02 06:50:10;;;;;;;2.58;1.80;;;18.70;97.20;;;;;;1720210;28;20275;-71
2022/06/02 06:51:10;;;;;;;4.10;2.03;;;18.80;97.20;;;;;;1720595;28;20696;-71
2022/06/02 06:52:14;;;;;;;2.75;1.70;;;18.80;97.20;;;;;;1720609;28;20205;-71
2022/06/02 06:53:20;;;;;;;2.15;1.75;;;18.80;97.20;;;;;;1720465;28;20577;-71
2022/06/02 06:54:20;;;;;;;3.05;1.67;;;18.90;97.20;;;;;;1720381;28;20197;-71
2022/06/02 06:55:30;;;;;;;2.45;1.65;;;18.90;97.20;;;;;;1720465;28;20202;-71
2022/06/02 06:56:29;;;;;;;1.95;1.70;;;18.90;97.20;;;;;;1720527;28;20717;-71
2022/06/02 06:57:28;;;;;;;3.55;1.77;;;19.00;97.20;;;;;;1720400;28;20208;-71
2022/06/02 06:58:39;;;;;;;1.52;1.42;;;19.00;97.20;;;;;;1720389;28;20201;-71
2022/06/02 06:59:51;;;;;;;3.42;1.80;;;19.00;97.20;;;;;;1720629;28;20201;-71
2022/06/02 07:00:47;;;;;;;7.45;2.08;;;19.10;97.20;;;;;;1720603;28;20212;-70
2022/06/02 07:01:47;;;;;;;2.42;2.10;;;19.10;97.20;;;;;;1720516;28;20217;-70
2022/06/02 07:02:55;;;;;;;3.28;1.90;;;19.10;97.20;;;;;;1720543;28;20763;-70
2022/06/02 07:03:56;;;;;;;3.75;2.08;;;19.10;97.20;;;;;;1720376;28;20220;-70
2022/06/02 07:04:57;;;;;;;3.38;1.90;;;19.10;97.20;;;;;;1720475;28;20246;-70
2022/06/02 07:05:49;;;;;;;2.85;1.95;;;19.10;97.20;;;;;;1720445;28;20208;-71
2022/06/02 07:06:49;;;;;;;2.72;1.45;;;19.10;97.20;;;;;;1720115;28;20240;-71
2022/06/02 07:07:50;;;;;;;1.95;1.77;;;19.10;97.20;;;;;;1720121;28;20209;-71
2022/06/02 07:08:46;;;;;;;5.25;2.10;;;19.10;97.20;;;;;;1720524;28;20208;-71
2022/06/02 07:09:45;;;;;;;3.05;1.85;;;19.10;97.20;;;;;;1720333;28;20312;-71
2022/06/02 07:10:45;;;;;;;6.13;2.28;;;19.20;97.20;;;;;;1720285;28;20201;-71
2022/06/02 07:13:09;;;;;;;1.88;1.75;;;19.20;97.20;;;;;;1720628;28;20634;-71
2022/06/02 07:14:08;;;;;;;2.55;2.03;;;19.20;97.20;;;;;;1720484;28;20198;-71
2022/06/02 07:15:06;;;;;;;4.72;1.70;;;19.20;97.20;;;;;;1720491;28;20189;-71
2022/06/02 07:16:03;;;;;;;1.95;1.75;;;19.20;97.20;;;;;;1720447;28;20362;-71
2022/06/02 07:16:59;;;;;;;3.83;1.63;;;19.20;97.20;;;;;;1720332;28;20185;-71
2022/06/02 07:17:59;;;;;;;4.55;2.30;;;19.20;97.20;;;;;;1720405;28;20193;-72
2022/06/02 07:18:58;;;;;;;2.40;1.70;;;19.30;97.20;;;;;;1720463;28;20205;-71
2022/06/02 07:19:59;;;;;;;1.75;1.63;;;19.30;97.20;;;;;;1720598;28;20190;-71
2022/06/02 07:20:56;;;;;;;3.25;2.05;;;19.20;97.20;;;;;;1720361;28;20212;-71
2022/06/02 07:21:52;;;;;;;2.65;1.80;;;19.20;97.20;;;;;;1720448;28;20212;-71
2022/06/02 07:22:49;;;;;;;2.33;1.67;;;19.20;97.20;;;;;;1720420;28;20594;-71
2022/06/02 07:23:54;;;;;;;2.42;1.60;;;19.20;97.20;;;;;;1720478;28;20192;-71
2022/06/02 07:24:53;;;;;;;2.33;2.10;;;19.20;97.20;;;;;;1713754;28;20185;-71
2022/06/02 07:25:55;;;;;;;3.47;2.20;;;19.20;97.20;;;;;;1713635;28;20209;-71
2022/06/02 07:26:55;;;;;;;2.25;1.80;;;19.20;97.20;;;;;;1712815;28;20226;-71
2022/06/02 07:27:54;;;;;;;3.33;2.10;;;19.20;97.20;;;;;;1713466;28;20202;-71
2022/06/02 07:28:55;;;;;;;3.00;1.90;;;19.20;97.20;;;;;;1713814;28;20190;-71
2022/06/02 07:30:09;;;;;;;3.13;1.80;;;19.20;97.20;;;;;;1713661;28;20278;-71
2022/06/02 07:31:27;;;;;;;2.10;1.90;;;19.20;97.20;;;;;;1719687;28;20239;-71
2022/06/02 07:32:54;;;;;;;2.28;1.80;;;19.20;97.20;;;;;;1719701;28;20296;-71
2022/06/02 07:33:59;;;;;;;2.95;1.95;;;19.30;97.20;;;;;;1713331;28;20295;-71
2022/06/02 07:35:22;;;;;;;2.00;1.80;;;19.30;97.20;;;;;;1720499;28;20244;-71
2022/06/02 07:36:36;;;;;;;3.25;1.60;;;19.30;97.20;;;;;;1720465;28;20680;-71
2022/06/02 07:37:34;;;;;;;1.80;1.60;;;19.30;97.20;;;;;;1720287;28;20243;-71
2022/06/02 07:38:47;;;;;;;1.60;1.50;;;19.30;97.20;;;;;;1720368;28;20736;-71
2022/06/02 07:40:02;;;;;;;5.63;2.10;;;19.30;97.20;;;;;;1720407;28;20208;-71
2022/06/02 07:41:08;;;;;;;1.95;1.67;;;19.30;97.20;;;;;;1718714;28;20236;-71
2022/06/02 07:42:11;;;;;;;3.65;1.90;;;19.40;97.20;;;;;;1720497;28;20660;-71
2022/06/02 07:43:34;;;;;;;6.75;2.30;;;19.40;97.20;;;;;;1720294;28;20201;-71
2022/06/02 07:44:43;;;;;;;2.13;1.90;;;19.40;97.20;;;;;;1720501;28;20210;-71
2022/06/02 07:45:42;;;;;;;2.00;1.80;;;19.50;97.20;;;;;;1720516;28;20600;-71
2022/06/02 07:47:00;;;;;;;1.88;1.65;;;19.50;97.20;;;;;;1720039;28;20281;-71
2022/06/02 07:48:39;;;;;;;2.58;1.90;;;19.50;97.20;;;;;;1720233;28;20201;-71
2022/06/02 07:49:50;;;;;;;2.03;1.85;;;19.50;97.20;;;;;;1720623;28;20672;-71
2022/06/02 07:50:48;;;;;;;2.45;1.70;;;19.50;97.20;;;;;;1720471;28;20189;-71
2022/06/02 07:51:43;;;;;;;2.22;1.80;;;19.60;97.20;;;;;;1720522;28;20186;-71
2022/06/02 07:52:43;;;;;;;2.88;1.83;;;19.60;97.20;;;;;;1720364;28;20229;-71
2022/06/02 07:53:52;;;;;;;3.10;1.90;;;19.60;97.20;;;;;;1720331;28;20229;-71
2022/06/02 07:54:50;;;;;;;1.77;1.60;;;19.70;97.20;;;;;;1720286;28;20229;-71
2022/06/02 07:55:50;;;;;;;2.95;1.67;;;19.80;97.20;;;;;;1720558;28;20225;-71
2022/06/02 07:56:52;;;;;;;2.75;1.77;;;19.80;97.20;;;;;;1720211;28;20201;-71
2022/06/02 07:57:53;;;;;;;3.47;1.67;;;19.90;97.20;;;;;;1720078;28;20209;-71
2022/06/02 07:58:57;;;;;;;3.25;1.80;;;19.90;97.20;;;;;;1720290;28;20190;-71
2022/06/02 08:00:03;;;;;;;1.70;1.60;;;20.00;97.20;;;;;;1720382;28;20210;-71
2022/06/02 08:01:00;;;;;;;4.30;1.58;;;20.00;97.20;;;;;;1720559;28;20229;-71
2022/06/02 08:02:14;;;;;;;2.75;1.80;;;20.10;97.20;;;;;;1720394;28;20201;-71
2022/06/02 08:03:31;;;;;;;2.15;1.77;;;20.20;97.20;;;;;;1720449;28;20208;-71
2022/06/02 08:04:30;;;;;;;2.42;2.00;;;20.30;97.20;;;;;;1720294;28;20582;-71
2022/06/02 08:05:32;;;;;;;1.98;1.80;;;20.30;97.20;;;;;;1720466;28;20189;-71
2022/06/02 08:06:36;;;;;;;2.22;1.50;;;20.30;97.20;;;;;;1720369;28;20210;-71
2022/06/02 08:07:34;;;;;;;2.15;1.75;;;20.40;97.20;;;;;;1720251;28;20716;-71
2022/06/02 08:08:30;;;;;;;2.30;2.10;;;20.50;97.20;;;;;;1720229;28;20204;-71
2022/06/02 08:09:48;;;;;;;2.17;1.83;;;20.60;97.20;;;;;;1719819;28;20201;-71
2022/06/02 08:10:48;;;;;;;3.80;3.50;;;20.70;97.20;;;;;;1720413;28;20251;-71
2022/06/02 08:11:49;;;;;;;5.15;2.30;;;20.80;97.20;;;;;;1720445;28;20197;-71
2022/06/02 08:12:48;;;;;;;2.22;2.00;;;20.90;97.20;;;;;;1720320;28;20233;-71
2022/06/02 08:13:49;;;;;;;5.72;2.30;;;21.00;97.20;;;;;;1718711;28;20206;-71
2022/06/02 08:14:50;;;;;;;3.15;2.00;;;21.10;97.20;;;;;;1713550;28;20361;-71
2022/06/02 08:15:51;;;;;;;3.47;2.47;;;21.20;97.20;;;;;;1713621;28;20205;-71
2022/06/02 08:16:51;;;;;;;2.17;1.85;;;21.30;97.20;;;;;;1713409;28;20206;-71
2022/06/02 08:17:51;;;;;;;3.35;2.20;;;21.40;97.20;;;;;;1718725;28;20203;-71
2022/06/02 08:19:06;;;;;;;2.92;2.40;;;21.50;97.20;;;;;;1720253;28;20720;-71
2022/06/02 08:20:10;;;;;;;3.40;3.10;;;21.60;97.20;;;;;;1720261;28;20205;-71
2022/06/02 08:21:15;;;;;;;3.55;1.67;;;21.70;97.20;;;;;;1720159;28;20206;-71
2022/06/02 08:22:11;;;;;;;3.05;2.75;;;21.80;97.20;;;;;;1720203;28;20578;-71
2022/06/02 08:23:11;;;;;;;2.60;2.40;;;21.80;97.20;;;;;;1720593;28;20685;-71
2022/06/02 08:24:34;;;;;;;2.17;1.98;;;21.90;97.20;;;;;;1721460;28;20200;-71
2022/06/02 08:25:28;;;;;;;2.33;1.60;;;22.00;97.20;;;;;;1721410;28;20236;-71
2022/06/02 08:26:26;;;;;;;2.20;1.80;;;22.10;97.20;;;;;;1721379;28;20224;-71
2022/06/02 08:27:59;;;;;;;1.95;1.60;;;22.20;97.20;;;;;;1720789;28;20201;-71
2022/06/02 08:29:07;;;;;;;3.67;1.70;;;22.40;97.20;;;;;;1700653;29;20294;-71
2022/06/02 08:30:06;;;;;;;2.15;1.50;;;22.50;97.20;;;;;;1700697;29;20203;-71
2022/06/02 08:31:03;;;;;;;4.43;1.83;;;22.60;97.20;;;;;;1703287;28;20195;-72
2022/06/02 08:32:10;;;;;;;1.90;1.60;;;22.70;97.20;;;;;;1721291;28;20205;-71
2022/06/02 08:33:38;;;;;;;2.47;1.55;;;22.80;97.20;;;;;;1721528;28;20563;-71
2022/06/02 08:34:37;;;;;;;2.10;1.70;;;22.90;97.20;;;;;;1721460;28;20197;-71
2022/06/02 08:35:37;;;;;;;2.28;1.67;;;22.90;97.20;;;;;;1721499;28;20186;-71
2022/06/02 08:36:40;;;;;;;5.50;1.70;;;22.90;97.20;;;;;;1721366;28;20220;-71
2022/06/02 08:37:40;;;;;;;1.52;1.23;;;22.90;97.20;;;;;;1721427;28;20202;-71
2022/06/02 08:38:46;;;;;;;2.45;1.50;;;22.90;97.20;;;;;;1721318;28;20200;-71
2022/06/02 08:40:00;;;;;;;4.13;1.58;;;22.90;97.20;;;;;;1721462;28;20236;-71
2022/06/02 08:41:29;;;;;;;2.60;1.50;;;22.80;97.20;;;;;;1721454;28;20656;-71
2022/06/02 08:42:47;;;;;;;1.85;1.75;;;22.80;97.20;;;;;;1721341;28;20213;-71
2022/06/02 08:44:06;;;;;;;4.03;1.60;;;22.70;97.20;;;;;;1721410;28;20697;-71
2022/06/02 08:45:29;;;;;;;3.08;2.17;;;22.60;97.20;;;;;;1707093;29;20252;-71
2022/06/02 08:46:59;;;;;;;2.45;1.70;;;22.50;97.20;;;;;;1721233;28;20213;-71
2022/06/02 08:48:28;;;;;;;2.17;1.98;;;22.30;97.20;;;;;;1714485;28;20213;-71
2022/06/02 08:49:49;;;;;;;3.10;1.80;;;22.30;97.20;;;;;;1714675;28;20190;-71
2022/06/02 08:51:12;;;;;;;2.53;2.33;;;22.20;97.20;;;;;;1714659;28;20466;-71
2022/06/02 08:52:43;;;;;;;4.07;3.35;;;22.20;97.20;;;;;;1712269;28;20236;-71
2022/06/02 08:54:11;;;;;;;4.30;2.38;;;22.30;97.20;;;;;;1714443;28;20787;-71
2022/06/02 08:55:40;;;;;;;2.58;2.17;;;22.40;97.20;;;;;;1741201;23;20253;-69
2022/06/02 08:57:17;;;;;;;2.10;2.00;;;22.40;97.20;;;;;;1721298;28;20228;-70
2022/06/02 08:58:43;;;;;;;3.15;1.88;;;22.40;97.20;;;;;;1693818;29;20333;-70
2022/06/02 09:00:10;;;;;;;1.98;1.55;;;22.40;97.20;;;;;;1721319;28;20657;-71
2022/06/02 09:01:10;;;;;;;5.82;2.25;;;22.40;97.20;;;;;;1721212;28;20712;-71
2022/06/02 09:02:26;;;;;;;1.58;1.48;;;22.30;97.20;;;;;;1720109;28;20185;-70
2022/06/02 09:04:04;;;;;;;2.03;1.63;;;22.40;97.20;;;;;;1726989;28;20565;-69
2022/06/02 09:05:32;;;;;;;2.90;1.80;;;22.40;97.20;;;;;;1721138;28;20685;-71
2022/06/02 09:06:55;;;;;;;1.88;1.65;;;22.40;97.20;;;;;;1712158;28;20590;-71
2022/06/02 09:08:15;;;;;;;1.55;1.40;;;22.50;97.20;;;;;;1714567;28;20225;-71
2022/06/02 09:09:45;;;;;;;1.73;1.60;;;22.60;97.20;;;;;;1714216;28;20202;-70
2022/06/02 09:10:58;;;;;;;1.75;1.33;;;22.70;97.20;;;;;;1702581;28;20234;-71
2022/06/02 09:12:12;;;;;;;3.10;1.70;;;22.80;97.20;;;;;;1714471;28;20831;-70
2022/06/02 09:13:42;;;;;;;2.75;1.48;;;22.90;97.20;;;;;;1714491;28;20209;-70
2022/06/02 09:15:07;;;;;;;1.50;1.40;;;22.90;97.20;;;;;;1714509;28;20687;-70
2022/06/02 09:16:18;;;;;;;4.78;1.70;;;23.00;97.20;;;;;;1714372;28;20213;-71
2022/06/02 09:17:26;;;;;;;3.28;1.63;;;23.00;97.20;;;;;;1714160;28;20233;-71
2022/06/02 09:18:40;;;;;;;3.92;1.70;;;23.20;97.20;;;;;;1714490;28;20197;-70
2022/06/02 09:19:39;;;;;;;4.85;1.58;;;23.20;97.20;;;;;;1714008;28;20210;-70
2022/06/02 09:20:41;;;;;;;2.90;1.65;;;23.30;97.20;;;;;;1717046;28;20201;-70
2022/06/02 09:21:52;;;;;;;2.75;1.58;;;23.40;97.20;;;;;;1714223;28;20670;-71
2022/06/02 09:22:56;;;;;;;1.98;1.48;;;23.50;97.20;;;;;;1714342;28;20186;-71
2022/06/02 09:24:01;;;;;;;2.15;1.50;;;23.50;97.20;;;;;;1714442;28;20861;-71
2022/06/02 09:25:06;;;;;;;2.30;1.40;;;23.60;97.20;;;;;;1714314;28;20217;-71
2022/06/02 09:26:18;;;;;;;4.47;1.85;;;23.70;97.20;;;;;;1714326;28;20329;-71
2022/06/02 09:27:53;;;;;;;1.50;1.40;;;23.70;97.20;;;;;;1713858;28;20678;-70
2022/06/02 09:29:15;;;;;;;1.60;1.42;;;23.80;97.20;;;;;;1714461;28;20202;-69
2022/06/02 09:30:11;;;;;;;3.30;1.80;;;23.90;97.20;;;;;;1714461;28;20709;-70
2022/06/02 09:31:21;;;;;;;2.55;1.52;;;23.90;97.20;;;;;;1714517;28;20264;-70
2022/06/02 09:32:44;;;;;;;2.35;1.45;;;24.00;97.20;;;;;;1714461;28;20635;-70
2022/06/02 09:34:07;;;;;;;3.08;1.77;;;24.10;97.20;;;;;;1714106;28;20198;-70
2022/06/02 09:35:13;;;;;;;3.40;2.13;;;24.10;97.20;;;;;;1714312;28;20219;-70
2022/06/02 09:36:26;;;;;;;1.40;1.30;;;24.10;97.20;;;;;;1714449;28;20328;-69
2022/06/02 09:37:57;;;;;;;2.83;1.58;;;24.20;97.20;;;;;;1714184;28;20206;-70
2022/06/02 09:39:04;;;;;;;1.80;1.70;;;24.20;96.70;;;;;;1707734;28;20209;-70
2022/06/02 09:40:16;;;;;;;2.10;1.50;;;24.20;96.40;;;;;;1714161;28;20268;-70
2022/06/02 09:41:27;;;;;;;2.40;1.75;;;24.30;96.80;;;;;;1711035;28;20209;-70
2022/06/02 09:42:42;;;;;;;2.30;1.63;;;24.30;96.70;;;;;;1714180;28;20556;-70
2022/06/02 09:44:00;;;;;;;2.13;1.20;;;24.30;96.70;;;;;;1714184;28;20293;-70
2022/06/02 09:45:02;;;;;;;1.63;1.33;;;24.40;96.80;;;;;;1714256;28;20560;-70
2022/06/02 09:46:06;;;;;;;2.70;1.70;;;24.40;96.90;;;;;;1714332;28;20226;-70
2022/06/02 09:47:41;;;;;;;3.75;1.60;;;24.50;97.10;;;;;;1715418;28;20190;-70
2022/06/02 09:48:50;;;;;;;2.08;1.70;;;24.50;96.40;;;;;;1720938;28;20599;-69
2022/06/02 09:50:14;;;;;;;4.07;2.08;;;24.60;95.90;;;;;;1720845;28;20574;-70
2022/06/02 09:51:25;;;;;;;2.45;1.42;;;24.60;96.00;;;;;;1721003;28;20307;-70
2022/06/02 09:52:30;;;;;;;2.00;1.52;;;24.70;96.10;;;;;;1720842;28;20205;-70
2022/06/02 09:53:59;;;;;;;2.55;1.40;;;24.80;95.80;;;;;;1720438;28;20621;-69
2022/06/02 09:55:12;;;;;;;1.50;1.40;;;24.90;96.60;;;;;;1720728;28;20209;-70
2022/06/02 09:56:25;;;;;;;4.30;1.80;;;25.00;97.20;;;;;;1720800;28;20267;-70
2022/06/02 09:57:56;;;;;;;2.08;1.42;;;25.10;97.20;;;;;;1715890;28;20733;-70
2022/06/02 09:59:10;;;;;;;1.92;1.55;;;25.10;96.70;;;;;;1713806;28;20257;-71
2022/06/02 10:00:11;;;;;;;1.48;1.38;;;25.20;95.80;;;;;;1714182;28;20572;-70
2022/06/02 10:01:25;;;;;;;3.15;1.70;;;25.20;96.20;;;;;;1714133;28;20182;-70
2022/06/02 10:02:27;;;;;;;1.98;1.50;;;25.30;95.50;;;;;;1714224;28;20656;-70
2022/06/02 10:03:40;;;;;;;1.90;1.80;;;25.30;95.00;;;;;;1714200;28;20269;-70
2022/06/02 10:05:06;;;;;;;1.65;1.52;;;25.30;95.00;;;;;;1714160;28;20645;-70
2022/06/02 10:06:14;;;;;;;1.90;1.70;;;25.40;95.70;;;;;;1700856;28;20203;-70
2022/06/02 10:07:26;;;;;;;1.92;1.52;;;25.40;94.70;;;;;;1713804;28;20204;-70
2022/06/02 10:08:33;;;;;;;2.20;2.00;;;25.40;94.40;;;;;;1714066;28;20225;-70
2022/06/02 10:09:33;;;;;;;4.97;1.60;;;25.40;94.80;;;;;;1716701;28;20212;-70
2022/06/02 10:10:43;;;;;;;3.60;2.00;;;25.40;95.60;;;;;;1720928;28;20251;-70
2022/06/02 10:11:47;;;;;;;2.45;1.60;;;25.40;95.40;;;;;;1720668;28;20205;-70
2022/06/02 10:12:58;;;;;;;1.95;1.85;;;25.40;95.60;;;;;;1720565;28;20194;-70
2022/06/02 10:14:12;;;;;;;1.95;1.70;;;25.40;95.50;;;;;;1720400;28;20626;-70
2022/06/02 10:15:21;;;;;;;4.03;1.80;;;25.40;94.80;;;;;;1720127;28;20228;-70
2022/06/02 10:16:39;;;;;;;3.00;1.77;;;25.40;94.30;;;;;;1719793;28;20233;-70
2022/06/02 10:17:48;;;;;;;1.70;1.60;;;25.40;95.40;;;;;;1720106;28;20218;-70
2022/06/02 10:19:10;;;;;;;3.20;1.90;;;25.50;94.90;;;;;;1720780;28;20587;-70
2022/06/02 10:20:34;;;;;;;2.03;1.83;;;25.50;94.20;;;;;;1720763;28;20605;-70
2022/06/02 10:21:44;;;;;;;1.60;1.48;;;25.50;94.70;;;;;;1720782;28;20256;-70
2022/06/02 10:22:42;;;;;;;2.28;1.52;;;25.50;95.50;;;;;;1720742;28;20742;-70
2022/06/02 10:23:57;;;;;;;3.20;1.75;;;25.60;95.30;;;;;;1720696;28;20201;-69
2022/06/02 10:25:47;;;;;;;1.60;1.42;;;25.60;95.10;;;;;;1720678;28;20208;-70
2022/06/02 10:27:01;;;;;;;2.97;1.90;;;25.70;95.40;;;;;;1686403;29;20617;-70
2022/06/02 10:28:15;;;;;;;1.70;1.60;;;25.80;95.20;;;;;;1699909;29;20213;-70
2022/06/02 10:29:36;;;;;;;5.93;2.20;;;25.90;94.30;;;;;;1706940;28;20210;-69
2022/06/02 10:30:56;;;;;;;2.58;2.30;;;25.90;94.20;;;;;;1720694;28;20205;-70
2022/06/02 10:32:28;;;;;;;2.00;1.73;;;26.00;93.90;;;;;;1720638;28;20707;-70
2022/06/02 10:33:42;;;;;;;2.33;2.13;;;26.10;94.50;;;;;;1720633;28;20217;-69
2022/06/02 10:34:58;;;;;;;2.50;2.20;;;26.20;95.10;;;;;;1720636;28;20240;-70
2022/06/02 10:36:25;;;;;;;1.90;1.70;;;26.30;94.10;;;;;;1720646;28;20699;-70
2022/06/02 10:37:57;;;;;;;4.93;2.40;;;26.30;92.80;;;;;;1720457;28;20243;-70
2022/06/02 10:39:02;;;;;;;2.55;2.35;;;26.40;93.10;;;;;;1712802;28;20243;-70
2022/06/02 10:40:13;;;;;;;2.65;1.73;;;26.50;92.60;;;;;;1720623;28;20193;-70
2022/06/02 10:41:17;;;;;;;3.47;1.60;;;26.50;92.40;;;;;;1720662;28;20294;-69
2022/06/02 10:42:39;;;;;;;4.65;1.95;;;26.50;92.50;;;;;;1720488;28;20190;-68
2022/06/02 10:44:11;;;;;;;1.67;1.58;;;26.50;92.70;;;;;;1719919;28;20284;-69
2022/06/02 10:45:34;;;;;;;3.65;1.77;;;26.50;91.70;;;;;;1720321;28;20701;-69
2022/06/02 10:46:59;;;;;;;2.45;1.63;;;26.40;90.70;;;;;;1706142;28;20209;-70
2022/06/02 10:48:29;;;;;;;1.55;1.40;;;26.20;90.80;;;;;;1720450;28;20567;-69
2022/06/02 10:49:33;;;;;;;4.32;2.00;;;26.20;91.80;;;;;;1720476;28;20228;-69
2022/06/02 10:50:42;;;;;;;2.85;1.77;;;26.10;92.50;;;;;;1720540;28;20190;-70
2022/06/02 10:52:28;;;;;;;2.70;1.70;;;26.20;92.60;;;;;;1720676;28;20665;-69
2022/06/02 10:53:46;;;;;;;3.20;1.95;;;26.20;92.60;;;;;;1720719;28;20204;-69
2022/06/02 10:55:19;;;;;;;1.92;1.70;;;26.20;92.80;;;;;;1720337;28;20201;-70
2022/06/02 10:56:53;;;;;;;1.88;1.75;;;26.30;93.10;;;;;;1720261;28;20232;-70
2022/06/02 10:58:13;;;;;;;3.78;1.80;;;26.30;92.50;;;;;;1719880;28;20727;-70
2022/06/02 10:59:46;;;;;;;2.00;1.80;;;26.40;92.80;;;;;;1709996;28;20721;-70
2022/06/02 11:00:58;;;;;;;2.38;1.45;;;26.40;91.30;;;;;;1693623;29;20204;-70
2022/06/02 11:02:33;;;;;;;2.60;1.35;;;26.40;91.00;;;;;;1713646;28;20190;-70
2022/06/02 11:04:13;;;;;;;3.75;1.70;;;26.30;89.60;;;;;;1692667;29;20215;-70
2022/06/02 11:05:34;;;;;;;2.53;1.73;;;26.20;89.60;;;;;;1713143;28;20233;-70
2022/06/02 11:07:23;;;;;;;2.28;1.52;;;26.00;89.90;;;;;;1692311;29;20214;-70
2022/06/02 11:08:54;;;;;;;2.42;1.52;;;25.90;89.90;;;;;;1698243;29;20207;-70
2022/06/02 11:10:24;;;;;;;3.95;1.73;;;25.80;91.10;;;;;;1699783;29;20254;-70